sensor_id;sensor_type;location;lat;lon;timestamp;P1;durP1;ratioP1;P2;durP2;ratioP2
37483;SDS011;23337;52.212;9.926;2024-02-04T00:02:06;6.63;;;2.87;;
37483;SDS011;23337;52.212;9.926;2024-02-04T00:04:34;5.40;;;3.70;;
37483;SDS011;23337;52.212;9.926;2024-02-04T00:07:00;4.77;;;3.60;;
37483;SDS011;23337;52.212;9.926;2024-02-04T00:09:27;7.20;;;4.00;;
37483;SDS011;23337;52.212;9.926;2024-02-04T00:11:54;8.20;;;3.30;;
37483;SDS011;23337;52.212;9.926;2024-02-04T00:14:20;5.57;;;2.87;;
37483;SDS011;23337;52.212;9.926;2024-02-04T00:16:45;6.03;;;4.17;;
37483;SDS011;23337;52.212;9.926;2024-02-04T00:19:11;4.07;;;3.00;;
37483;SDS011;23337;52.212;9.926;2024-02-04T00:21:37;4.43;;;3.10;;
37483;SDS011;23337;52.212;9.926;2024-02-04T00:24:03;5.43;;;2.67;;
37483;SDS011;23337;52.212;9.926;2024-02-04T00:26:29;5.83;;;3.23;;
37483;SDS011;23337;52.212;9.926;2024-02-04T00:28:55;5.57;;;3.03;;
37483;SDS011;23337;52.212;9.926;2024-02-04T00:31:21;6.00;;;3.37;;
37483;SDS011;23337;52.212;9.926;2024-02-04T00:33:47;5.03;;;3.23;;
37483;SDS011;23337;52.212;9.926;2024-02-04T00:36:13;5.23;;;3.20;;
37483;SDS011;23337;52.212;9.926;2024-02-04T00:38:39;4.60;;;3.30;;
37483;SDS011;23337;52.212;9.926;2024-02-04T00:41:05;6.87;;;3.40;;
37483;SDS011;23337;52.212;9.926;2024-02-04T00:43:31;5.37;;;3.17;;
37483;SDS011;23337;52.212;9.926;2024-02-04T00:45:57;5.83;;;3.93;;
37483;SDS011;23337;52.212;9.926;2024-02-04T00:48:25;5.73;;;4.10;;
37483;SDS011;23337;52.212;9.926;2024-02-04T00:50:51;4.93;;;3.90;;
37483;SDS011;23337;52.212;9.926;2024-02-04T00:53:17;5.50;;;4.17;;
37483;SDS011;23337;52.212;9.926;2024-02-04T00:55:43;5.57;;;3.93;;
37483;SDS011;23337;52.212;9.926;2024-02-04T00:58:09;6.77;;;3.63;;
37483;SDS011;23337;52.212;9.926;2024-02-04T01:00:35;5.13;;;3.13;;
37483;SDS011;23337;52.212;9.926;2024-02-04T01:03:01;5.10;;;3.30;;
37483;SDS011;23337;52.212;9.926;2024-02-04T01:05:27;5.70;;;3.67;;
37483;SDS011;23337;52.212;9.926;2024-02-04T01:07:53;4.87;;;3.27;;
37483;SDS011;23337;52.212;9.926;2024-02-04T01:10:19;5.40;;;2.93;;
37483;SDS011;23337;52.212;9.926;2024-02-04T01:12:45;5.37;;;3.70;;
37483;SDS011;23337;52.212;9.926;2024-02-04T01:15:11;5.47;;;3.30;;
37483;SDS011;23337;52.212;9.926;2024-02-04T01:17:37;8.13;;;4.17;;
37483;SDS011;23337;52.212;9.926;2024-02-04T01:20:03;6.60;;;4.03;;
37483;SDS011;23337;52.212;9.926;2024-02-04T01:22:29;5.70;;;3.87;;
37483;SDS011;23337;52.212;9.926;2024-02-04T01:24:55;8.47;;;4.40;;
37483;SDS011;23337;52.212;9.926;2024-02-04T01:27:20;5.13;;;4.20;;
37483;SDS011;23337;52.212;9.926;2024-02-04T01:29:46;6.03;;;4.53;;
37483;SDS011;23337;52.212;9.926;2024-02-04T01:32:12;6.57;;;5.43;;
37483;SDS011;23337;52.212;9.926;2024-02-04T01:34:39;7.63;;;5.53;;
37483;SDS011;23337;52.212;9.926;2024-02-04T01:37:04;7.50;;;4.60;;
37483;SDS011;23337;52.212;9.926;2024-02-04T01:39:30;8.57;;;5.57;;
37483;SDS011;23337;52.212;9.926;2024-02-04T01:41:57;10.30;;;5.97;;
37483;SDS011;23337;52.212;9.926;2024-02-04T01:44:23;10.43;;;5.40;;
37483;SDS011;23337;52.212;9.926;2024-02-04T01:46:49;8.17;;;4.80;;
37483;SDS011;23337;52.212;9.926;2024-02-04T01:49:15;6.70;;;3.87;;
37483;SDS011;23337;52.212;9.926;2024-02-04T01:51:41;8.90;;;5.30;;
37483;SDS011;23337;52.212;9.926;2024-02-04T01:54:07;9.90;;;5.10;;
37483;SDS011;23337;52.212;9.926;2024-02-04T01:56:34;8.27;;;4.97;;
37483;SDS011;23337;52.212;9.926;2024-02-04T01:59:00;6.87;;;4.63;;
37483;SDS011;23337;52.212;9.926;2024-02-04T02:01:26;8.33;;;4.47;;
37483;SDS011;23337;52.212;9.926;2024-02-04T02:03:53;5.50;;;4.37;;
37483;SDS011;23337;52.212;9.926;2024-02-04T02:06:19;8.57;;;4.30;;
37483;SDS011;23337;52.212;9.926;2024-02-04T02:08:45;6.70;;;4.80;;
37483;SDS011;23337;52.212;9.926;2024-02-04T02:11:13;9.97;;;4.83;;
37483;SDS011;23337;52.212;9.926;2024-02-04T02:13:42;8.50;;;5.20;;
37483;SDS011;23337;52.212;9.926;2024-02-04T02:16:13;9.77;;;6.00;;
37483;SDS011;23337;52.212;9.926;2024-02-04T02:18:44;9.87;;;6.77;;
37483;SDS011;23337;52.212;9.926;2024-02-04T02:21:35;8.10;;;7.13;;
37483;SDS011;23337;52.212;9.926;2024-02-04T02:26:37;10.30;;;8.63;;
37483;SDS011;23337;52.212;9.926;2024-02-04T02:29:04;10.23;;;8.03;;
37483;SDS011;23337;52.212;9.926;2024-02-04T02:31:30;9.33;;;8.10;;
37483;SDS011;23337;52.212;9.926;2024-02-04T02:33:57;11.90;;;8.93;;
37483;SDS011;23337;52.212;9.926;2024-02-04T02:36:23;12.07;;;8.73;;
37483;SDS011;23337;52.212;9.926;2024-02-04T02:38:59;12.50;;;9.33;;
37483;SDS011;23337;52.212;9.926;2024-02-04T02:41:25;10.07;;;7.63;;
37483;SDS011;23337;52.212;9.926;2024-02-04T02:43:53;9.13;;;8.10;;
37483;SDS011;23337;52.212;9.926;2024-02-04T02:46:20;14.07;;;8.30;;
37483;SDS011;23337;52.212;9.926;2024-02-04T02:48:46;13.23;;;7.77;;
37483;SDS011;23337;52.212;9.926;2024-02-04T02:51:12;10.60;;;7.60;;
37483;SDS011;23337;52.212;9.926;2024-02-04T02:53:38;8.03;;;7.17;;
37483;SDS011;23337;52.212;9.926;2024-02-04T02:56:04;9.20;;;6.90;;
37483;SDS011;23337;52.212;9.926;2024-02-04T02:58:30;10.13;;;6.00;;
37483;SDS011;23337;52.212;9.926;2024-02-04T03:00:57;9.47;;;5.97;;
37483;SDS011;23337;52.212;9.926;2024-02-04T03:03:23;7.40;;;5.97;;
37483;SDS011;23337;52.212;9.926;2024-02-04T03:05:49;9.93;;;6.13;;
37483;SDS011;23337;52.212;9.926;2024-02-04T03:08:15;6.83;;;5.53;;
37483;SDS011;23337;52.212;9.926;2024-02-04T03:10:41;8.00;;;6.23;;
37483;SDS011;23337;52.212;9.926;2024-02-04T03:13:07;8.23;;;5.83;;
37483;SDS011;23337;52.212;9.926;2024-02-04T03:15:33;6.37;;;5.37;;
37483;SDS011;23337;52.212;9.926;2024-02-04T03:17:59;8.60;;;5.90;;
37483;SDS011;23337;52.212;9.926;2024-02-04T03:20:25;8.80;;;5.97;;
37483;SDS011;23337;52.212;9.926;2024-02-04T03:22:51;7.80;;;5.30;;
37483;SDS011;23337;52.212;9.926;2024-02-04T03:25:17;8.97;;;5.73;;
37483;SDS011;23337;52.212;9.926;2024-02-04T03:27:43;10.00;;;6.00;;
37483;SDS011;23337;52.212;9.926;2024-02-04T03:30:09;8.30;;;6.23;;
37483;SDS011;23337;52.212;9.926;2024-02-04T03:32:35;7.83;;;5.43;;
37483;SDS011;23337;52.212;9.926;2024-02-04T03:35:01;7.27;;;6.00;;
37483;SDS011;23337;52.212;9.926;2024-02-04T03:37:27;9.90;;;7.33;;
37483;SDS011;23337;52.212;9.926;2024-02-04T03:39:53;8.23;;;6.27;;
37483;SDS011;23337;52.212;9.926;2024-02-04T03:42:19;9.10;;;6.83;;
37483;SDS011;23337;52.212;9.926;2024-02-04T03:44:47;8.77;;;7.17;;
37483;SDS011;23337;52.212;9.926;2024-02-04T03:47:13;9.63;;;7.23;;
37483;SDS011;23337;52.212;9.926;2024-02-04T03:49:39;7.30;;;6.33;;
37483;SDS011;23337;52.212;9.926;2024-02-04T03:52:06;12.77;;;6.57;;
37483;SDS011;23337;52.212;9.926;2024-02-04T03:54:32;9.80;;;7.70;;
37483;SDS011;23337;52.212;9.926;2024-02-04T03:56:58;10.80;;;8.00;;
37483;SDS011;23337;52.212;9.926;2024-02-04T03:59:23;7.80;;;7.00;;
37483;SDS011;23337;52.212;9.926;2024-02-04T04:01:49;9.43;;;7.30;;
37483;SDS011;23337;52.212;9.926;2024-02-04T04:04:16;9.33;;;7.13;;
37483;SDS011;23337;52.212;9.926;2024-02-04T04:06:42;8.70;;;7.00;;
37483;SDS011;23337;52.212;9.926;2024-02-04T04:09:08;8.83;;;7.50;;
37483;SDS011;23337;52.212;9.926;2024-02-04T04:11:34;10.40;;;6.93;;
37483;SDS011;23337;52.212;9.926;2024-02-04T04:14:00;8.27;;;7.00;;
37483;SDS011;23337;52.212;9.926;2024-02-04T04:16:26;8.70;;;7.50;;
37483;SDS011;23337;52.212;9.926;2024-02-04T04:18:52;8.23;;;6.23;;
37483;SDS011;23337;52.212;9.926;2024-02-04T04:21:18;8.03;;;5.87;;
37483;SDS011;23337;52.212;9.926;2024-02-04T04:23:44;11.23;;;7.20;;
37483;SDS011;23337;52.212;9.926;2024-02-04T04:26:10;8.50;;;5.53;;
37483;SDS011;23337;52.212;9.926;2024-02-04T04:28:36;6.67;;;5.70;;
37483;SDS011;23337;52.212;9.926;2024-02-04T04:31:02;7.10;;;5.77;;
37483;SDS011;23337;52.212;9.926;2024-02-04T04:33:28;8.40;;;6.03;;
37483;SDS011;23337;52.212;9.926;2024-02-04T04:35:55;7.43;;;6.57;;
37483;SDS011;23337;52.212;9.926;2024-02-04T04:38:21;8.70;;;6.00;;
37483;SDS011;23337;52.212;9.926;2024-02-04T04:40:46;8.03;;;6.00;;
37483;SDS011;23337;52.212;9.926;2024-02-04T04:43:13;7.93;;;5.60;;
37483;SDS011;23337;52.212;9.926;2024-02-04T04:45:39;6.97;;;5.33;;
37483;SDS011;23337;52.212;9.926;2024-02-04T04:48:05;5.77;;;5.10;;
37483;SDS011;23337;52.212;9.926;2024-02-04T04:50:33;9.00;;;5.27;;
37483;SDS011;23337;52.212;9.926;2024-02-04T04:52:59;6.30;;;4.70;;
37483;SDS011;23337;52.212;9.926;2024-02-04T04:55:24;6.23;;;5.40;;
37483;SDS011;23337;52.212;9.926;2024-02-04T04:57:50;7.90;;;5.63;;
37483;SDS011;23337;52.212;9.926;2024-02-04T05:00:17;6.53;;;4.90;;
37483;SDS011;23337;52.212;9.926;2024-02-04T05:02:43;5.00;;;4.60;;
37483;SDS011;23337;52.212;9.926;2024-02-04T05:05:12;6.67;;;4.50;;
37483;SDS011;23337;52.212;9.926;2024-02-04T05:07:38;4.57;;;4.17;;
37483;SDS011;23337;52.212;9.926;2024-02-04T05:10:04;5.00;;;4.60;;
37483;SDS011;23337;52.212;9.926;2024-02-04T05:12:31;5.63;;;4.70;;
37483;SDS011;23337;52.212;9.926;2024-02-04T05:14:57;4.93;;;3.93;;
37483;SDS011;23337;52.212;9.926;2024-02-04T05:17:23;4.87;;;3.67;;
37483;SDS011;23337;52.212;9.926;2024-02-04T05:19:49;6.23;;;4.57;;
37483;SDS011;23337;52.212;9.926;2024-02-04T05:22:15;4.30;;;3.20;;
37483;SDS011;23337;52.212;9.926;2024-02-04T05:24:41;4.40;;;3.40;;
37483;SDS011;23337;52.212;9.926;2024-02-04T05:27:07;4.67;;;3.43;;
37483;SDS011;23337;52.212;9.926;2024-02-04T05:29:33;9.30;;;3.30;;
37483;SDS011;23337;52.212;9.926;2024-02-04T05:31:59;5.23;;;3.00;;
37483;SDS011;23337;52.212;9.926;2024-02-04T05:34:25;6.13;;;2.90;;
37483;SDS011;23337;52.212;9.926;2024-02-04T05:36:51;4.93;;;3.00;;
37483;SDS011;23337;52.212;9.926;2024-02-04T05:39:17;2.80;;;2.50;;
37483;SDS011;23337;52.212;9.926;2024-02-04T05:41:44;3.50;;;1.93;;
37483;SDS011;23337;52.212;9.926;2024-02-04T05:44:10;4.77;;;3.07;;
37483;SDS011;23337;52.212;9.926;2024-02-04T05:46:36;4.90;;;2.57;;
37483;SDS011;23337;52.212;9.926;2024-02-04T05:49:02;7.60;;;2.87;;
37483;SDS011;23337;52.212;9.926;2024-02-04T05:51:28;3.27;;;2.37;;
37483;SDS011;23337;52.212;9.926;2024-02-04T05:53:54;4.07;;;2.17;;
37483;SDS011;23337;52.212;9.926;2024-02-04T05:56:20;3.43;;;2.10;;
37483;SDS011;23337;52.212;9.926;2024-02-04T05:58:46;2.93;;;2.20;;
37483;SDS011;23337;52.212;9.926;2024-02-04T06:01:12;3.50;;;2.37;;
37483;SDS011;23337;52.212;9.926;2024-02-04T06:03:38;3.53;;;1.93;;
37483;SDS011;23337;52.212;9.926;2024-02-04T06:06:04;2.67;;;2.20;;
37483;SDS011;23337;52.212;9.926;2024-02-04T06:08:30;3.33;;;2.03;;
37483;SDS011;23337;52.212;9.926;2024-02-04T06:10:56;3.37;;;1.73;;
37483;SDS011;23337;52.212;9.926;2024-02-04T06:13:22;3.07;;;1.67;;
37483;SDS011;23337;52.212;9.926;2024-02-04T06:15:49;3.80;;;1.87;;
37483;SDS011;23337;52.212;9.926;2024-02-04T06:18:14;2.47;;;1.93;;
37483;SDS011;23337;52.212;9.926;2024-02-04T06:20:40;1.77;;;1.40;;
37483;SDS011;23337;52.212;9.926;2024-02-04T06:23:06;3.73;;;1.73;;
37483;SDS011;23337;52.212;9.926;2024-02-04T06:25:32;2.10;;;1.43;;
37483;SDS011;23337;52.212;9.926;2024-02-04T06:27:58;3.40;;;1.50;;
37483;SDS011;23337;52.212;9.926;2024-02-04T06:30:24;3.70;;;1.37;;
37483;SDS011;23337;52.212;9.926;2024-02-04T06:32:50;1.67;;;1.20;;
37483;SDS011;23337;52.212;9.926;2024-02-04T06:35:16;3.93;;;1.30;;
37483;SDS011;23337;52.212;9.926;2024-02-04T06:37:42;1.80;;;1.20;;
37483;SDS011;23337;52.212;9.926;2024-02-04T06:40:09;2.77;;;1.70;;
37483;SDS011;23337;52.212;9.926;2024-02-04T06:42:35;2.60;;;1.60;;
37483;SDS011;23337;52.212;9.926;2024-02-04T06:45:01;2.20;;;1.90;;
37483;SDS011;23337;52.212;9.926;2024-02-04T06:47:27;2.43;;;1.40;;
37483;SDS011;23337;52.212;9.926;2024-02-04T06:49:53;3.20;;;1.53;;
37483;SDS011;23337;52.212;9.926;2024-02-04T06:52:19;4.43;;;1.60;;
37483;SDS011;23337;52.212;9.926;2024-02-04T06:54:45;1.50;;;1.17;;
37483;SDS011;23337;52.212;9.926;2024-02-04T06:57:11;2.20;;;0.90;;
37483;SDS011;23337;52.212;9.926;2024-02-04T06:59:37;1.90;;;1.07;;
37483;SDS011;23337;52.212;9.926;2024-02-04T07:02:03;2.70;;;1.17;;
37483;SDS011;23337;52.212;9.926;2024-02-04T07:04:29;1.53;;;1.30;;
37483;SDS011;23337;52.212;9.926;2024-02-04T07:06:55;1.73;;;1.07;;
37483;SDS011;23337;52.212;9.926;2024-02-04T07:09:21;3.43;;;1.40;;
37483;SDS011;23337;52.212;9.926;2024-02-04T07:11:46;2.43;;;1.37;;
37483;SDS011;23337;52.212;9.926;2024-02-04T07:14:13;2.13;;;1.27;;
37483;SDS011;23337;52.212;9.926;2024-02-04T07:16:39;3.00;;;1.40;;
37483;SDS011;23337;52.212;9.926;2024-02-04T07:19:04;3.27;;;1.23;;
37483;SDS011;23337;52.212;9.926;2024-02-04T07:21:30;4.13;;;1.10;;
37483;SDS011;23337;52.212;9.926;2024-02-04T07:23:56;2.60;;;1.17;;
37483;SDS011;23337;52.212;9.926;2024-02-04T07:26:22;3.73;;;1.30;;
37483;SDS011;23337;52.212;9.926;2024-02-04T07:28:48;2.13;;;0.97;;
37483;SDS011;23337;52.212;9.926;2024-02-04T07:31:14;4.33;;;0.80;;
37483;SDS011;23337;52.212;9.926;2024-02-04T07:33:40;2.23;;;0.80;;
37483;SDS011;23337;52.212;9.926;2024-02-04T07:36:07;1.43;;;0.70;;
37483;SDS011;23337;52.212;9.926;2024-02-04T07:38:33;1.67;;;0.90;;
37483;SDS011;23337;52.212;9.926;2024-02-04T07:40:59;2.57;;;1.10;;
37483;SDS011;23337;52.212;9.926;2024-02-04T07:43:25;2.33;;;0.80;;
37483;SDS011;23337;52.212;9.926;2024-02-04T07:45:51;1.73;;;1.13;;
37483;SDS011;23337;52.212;9.926;2024-02-04T07:48:18;3.03;;;1.07;;
37483;SDS011;23337;52.212;9.926;2024-02-04T07:50:44;2.90;;;1.10;;
37483;SDS011;23337;52.212;9.926;2024-02-04T07:53:10;2.50;;;1.23;;
37483;SDS011;23337;52.212;9.926;2024-02-04T07:55:36;2.40;;;0.97;;
37483;SDS011;23337;52.212;9.926;2024-02-04T07:58:03;3.97;;;0.93;;
37483;SDS011;23337;52.212;9.926;2024-02-04T08:00:28;3.37;;;1.10;;
37483;SDS011;23337;52.212;9.926;2024-02-04T08:02:55;2.80;;;1.20;;
37483;SDS011;23337;52.212;9.926;2024-02-04T08:05:21;2.43;;;1.30;;
37483;SDS011;23337;52.212;9.926;2024-02-04T08:07:47;3.10;;;1.70;;
37483;SDS011;23337;52.212;9.926;2024-02-04T08:10:13;2.37;;;1.30;;
37483;SDS011;23337;52.212;9.926;2024-02-04T08:12:40;4.67;;;1.60;;
37483;SDS011;23337;52.212;9.926;2024-02-04T08:15:06;3.07;;;1.00;;
37483;SDS011;23337;52.212;9.926;2024-02-04T08:17:32;2.77;;;1.53;;
37483;SDS011;23337;52.212;9.926;2024-02-04T08:19:58;2.60;;;0.90;;
37483;SDS011;23337;52.212;9.926;2024-02-04T08:22:24;3.20;;;0.80;;
37483;SDS011;23337;52.212;9.926;2024-02-04T08:24:50;4.90;;;1.13;;
37483;SDS011;23337;52.212;9.926;2024-02-04T08:27:16;2.03;;;0.80;;
37483;SDS011;23337;52.212;9.926;2024-02-04T08:29:43;1.53;;;0.90;;
37483;SDS011;23337;52.212;9.926;2024-02-04T08:32:09;2.83;;;0.93;;
37483;SDS011;23337;52.212;9.926;2024-02-04T08:34:35;1.80;;;0.50;;
37483;SDS011;23337;52.212;9.926;2024-02-04T08:37:01;8.03;;;1.33;;
37483;SDS011;23337;52.212;9.926;2024-02-04T08:39:28;2.07;;;0.80;;
37483;SDS011;23337;52.212;9.926;2024-02-04T08:41:55;4.73;;;0.97;;
37483;SDS011;23337;52.212;9.926;2024-02-04T08:44:21;2.80;;;1.50;;
37483;SDS011;23337;52.212;9.926;2024-02-04T08:46:47;1.30;;;0.77;;
37483;SDS011;23337;52.212;9.926;2024-02-04T08:49:13;3.67;;;1.23;;
37483;SDS011;23337;52.212;9.926;2024-02-04T08:51:39;3.83;;;1.47;;
37483;SDS011;23337;52.212;9.926;2024-02-04T08:54:05;1.10;;;0.70;;
37483;SDS011;23337;52.212;9.926;2024-02-04T08:56:31;5.97;;;1.20;;
37483;SDS011;23337;52.212;9.926;2024-02-04T08:58:57;4.43;;;0.93;;
37483;SDS011;23337;52.212;9.926;2024-02-04T09:01:24;3.67;;;0.90;;
37483;SDS011;23337;52.212;9.926;2024-02-04T09:03:50;5.53;;;1.80;;
37483;SDS011;23337;52.212;9.926;2024-02-04T09:06:16;3.40;;;1.33;;
37483;SDS011;23337;52.212;9.926;2024-02-04T09:08:42;2.90;;;1.00;;
37483;SDS011;23337;52.212;9.926;2024-02-04T09:11:08;1.90;;;0.60;;
37483;SDS011;23337;52.212;9.926;2024-02-04T09:13:34;6.30;;;1.30;;
37483;SDS011;23337;52.212;9.926;2024-02-04T09:16:00;2.77;;;1.53;;
37483;SDS011;23337;52.212;9.926;2024-02-04T09:18:26;7.70;;;2.10;;
37483;SDS011;23337;52.212;9.926;2024-02-04T09:20:52;6.13;;;1.63;;
37483;SDS011;23337;52.212;9.926;2024-02-04T09:23:18;6.07;;;1.90;;
37483;SDS011;23337;52.212;9.926;2024-02-04T09:25:44;5.50;;;1.53;;
37483;SDS011;23337;52.212;9.926;2024-02-04T09:28:10;3.07;;;1.20;;
37483;SDS011;23337;52.212;9.926;2024-02-04T09:30:36;4.13;;;0.90;;
37483;SDS011;23337;52.212;9.926;2024-02-04T09:33:01;4.80;;;1.20;;
37483;SDS011;23337;52.212;9.926;2024-02-04T09:35:28;5.27;;;0.97;;
37483;SDS011;23337;52.212;9.926;2024-02-04T09:37:54;7.27;;;1.30;;
37483;SDS011;23337;52.212;9.926;2024-02-04T09:40:20;5.50;;;1.30;;
37483;SDS011;23337;52.212;9.926;2024-02-04T09:42:46;3.20;;;1.27;;
37483;SDS011;23337;52.212;9.926;2024-02-04T09:45:14;4.67;;;1.10;;
37483;SDS011;23337;52.212;9.926;2024-02-04T09:47:40;2.87;;;1.00;;
37483;SDS011;23337;52.212;9.926;2024-02-04T09:50:08;6.77;;;1.27;;
37483;SDS011;23337;52.212;9.926;2024-02-04T09:52:34;3.10;;;1.10;;
37483;SDS011;23337;52.212;9.926;2024-02-04T09:55:03;5.17;;;1.30;;
37483;SDS011;23337;52.212;9.926;2024-02-04T09:57:30;6.47;;;1.27;;
37483;SDS011;23337;52.212;9.926;2024-02-04T09:59:57;4.63;;;1.83;;
37483;SDS011;23337;52.212;9.926;2024-02-04T10:02:23;5.40;;;1.30;;
37483;SDS011;23337;52.212;9.926;2024-02-04T10:04:50;5.40;;;1.03;;
37483;SDS011;23337;52.212;9.926;2024-02-04T10:07:16;3.80;;;1.00;;
37483;SDS011;23337;52.212;9.926;2024-02-04T10:09:43;7.87;;;1.93;;
37483;SDS011;23337;52.212;9.926;2024-02-04T10:12:09;6.97;;;1.30;;
37483;SDS011;23337;52.212;9.926;2024-02-04T10:14:35;5.23;;;1.30;;
37483;SDS011;23337;52.212;9.926;2024-02-04T10:17:01;3.30;;;0.90;;
37483;SDS011;23337;52.212;9.926;2024-02-04T10:19:27;5.70;;;1.23;;
37483;SDS011;23337;52.212;9.926;2024-02-04T10:22:00;3.43;;;1.20;;
37483;SDS011;23337;52.212;9.926;2024-02-04T10:24:26;6.03;;;1.67;;
37483;SDS011;23337;52.212;9.926;2024-02-04T10:26:53;6.77;;;1.53;;
37483;SDS011;23337;52.212;9.926;2024-02-04T10:29:19;3.47;;;1.03;;
37483;SDS011;23337;52.212;9.926;2024-02-04T10:31:45;9.77;;;1.60;;
37483;SDS011;23337;52.212;9.926;2024-02-04T10:34:11;3.37;;;1.10;;
37483;SDS011;23337;52.212;9.926;2024-02-04T10:36:36;4.37;;;1.50;;
37483;SDS011;23337;52.212;9.926;2024-02-04T10:39:03;7.30;;;1.43;;
37483;SDS011;23337;52.212;9.926;2024-02-04T10:41:29;6.00;;;1.23;;
37483;SDS011;23337;52.212;9.926;2024-02-04T10:43:57;5.30;;;1.50;;
37483;SDS011;23337;52.212;9.926;2024-02-04T10:46:24;4.27;;;1.23;;
37483;SDS011;23337;52.212;9.926;2024-02-04T10:49:09;3.80;;;1.70;;
37483;SDS011;23337;52.212;9.926;2024-02-04T10:51:37;6.82;;;1.58;;
37483;SDS011;23337;52.212;9.926;2024-02-04T10:54:04;11.73;;;3.17;;
37483;SDS011;23337;52.212;9.926;2024-02-04T10:56:37;2.90;;;1.13;;
37483;SDS011;23337;52.212;9.926;2024-02-04T10:59:06;6.07;;;2.50;;
37483;SDS011;23337;52.212;9.926;2024-02-04T11:01:32;13.77;;;6.07;;
37483;SDS011;23337;52.212;9.926;2024-02-04T11:03:58;6.93;;;1.80;;
37483;SDS011;23337;52.212;9.926;2024-02-04T11:06:25;4.80;;;2.17;;
37483;SDS011;23337;52.212;9.926;2024-02-04T11:08:52;4.77;;;1.50;;
37483;SDS011;23337;52.212;9.926;2024-02-04T11:11:19;5.73;;;1.30;;
37483;SDS011;23337;52.212;9.926;2024-02-04T11:13:49;5.77;;;1.87;;
37483;SDS011;23337;52.212;9.926;2024-02-04T11:16:27;3.50;;;1.60;;
37483;SDS011;23337;52.212;9.926;2024-02-04T11:21:50;4.30;;;1.20;;
37483;SDS011;23337;52.212;9.926;2024-02-04T11:26:55;5.57;;;1.60;;
37483;SDS011;23337;52.212;9.926;2024-02-04T11:29:21;4.10;;;1.10;;
37483;SDS011;23337;52.212;9.926;2024-02-04T11:31:47;4.83;;;1.50;;
37483;SDS011;23337;52.212;9.926;2024-02-04T11:34:13;4.27;;;1.40;;
37483;SDS011;23337;52.212;9.926;2024-02-04T11:36:39;4.60;;;1.13;;
37483;SDS011;23337;52.212;9.926;2024-02-04T11:39:17;5.03;;;1.33;;
37483;SDS011;23337;52.212;9.926;2024-02-04T11:41:46;4.50;;;1.40;;
37483;SDS011;23337;52.212;9.926;2024-02-04T11:44:12;6.37;;;1.37;;
37483;SDS011;23337;52.212;9.926;2024-02-04T11:46:38;3.60;;;1.30;;
37483;SDS011;23337;52.212;9.926;2024-02-04T11:49:14;5.53;;;1.47;;
37483;SDS011;23337;52.212;9.926;2024-02-04T11:51:44;4.30;;;1.13;;
37483;SDS011;23337;52.212;9.926;2024-02-04T11:54:10;3.93;;;1.27;;
37483;SDS011;23337;52.212;9.926;2024-02-04T11:56:37;4.73;;;1.20;;
37483;SDS011;23337;52.212;9.926;2024-02-04T11:59:04;2.30;;;0.93;;
37483;SDS011;23337;52.212;9.926;2024-02-04T12:01:32;5.73;;;1.30;;
37483;SDS011;23337;52.212;9.926;2024-02-04T12:04:08;5.20;;;1.47;;
37483;SDS011;23337;52.212;9.926;2024-02-04T12:06:34;4.33;;;1.10;;
37483;SDS011;23337;52.212;9.926;2024-02-04T12:09:00;3.10;;;1.10;;
37483;SDS011;23337;52.212;9.926;2024-02-04T12:11:29;4.67;;;1.10;;
37483;SDS011;23337;52.212;9.926;2024-02-04T12:13:56;3.40;;;0.87;;
37483;SDS011;23337;52.212;9.926;2024-02-04T12:16:22;2.83;;;0.90;;
37483;SDS011;23337;52.212;9.926;2024-02-04T12:18:48;3.13;;;1.27;;
37483;SDS011;23337;52.212;9.926;2024-02-04T12:21:14;4.47;;;1.10;;
37483;SDS011;23337;52.212;9.926;2024-02-04T12:23:40;4.17;;;1.23;;
37483;SDS011;23337;52.212;9.926;2024-02-04T12:26:06;4.80;;;2.63;;
37483;SDS011;23337;52.212;9.926;2024-02-04T12:28:32;4.03;;;2.37;;
37483;SDS011;23337;52.212;9.926;2024-02-04T12:30:58;6.53;;;2.17;;
37483;SDS011;23337;52.212;9.926;2024-02-04T12:33:24;4.88;;;1.50;;
37483;SDS011;23337;52.212;9.926;2024-02-04T12:35:51;4.43;;;2.20;;
37483;SDS011;23337;52.212;9.926;2024-02-04T12:38:17;5.47;;;1.40;;
37483;SDS011;23337;52.212;9.926;2024-02-04T12:40:43;4.67;;;1.13;;
37483;SDS011;23337;52.212;9.926;2024-02-04T12:43:10;5.63;;;1.83;;
37483;SDS011;23337;52.212;9.926;2024-02-04T12:45:36;2.50;;;0.90;;
37483;SDS011;23337;52.212;9.926;2024-02-04T12:48:02;2.37;;;1.03;;
37483;SDS011;23337;52.212;9.926;2024-02-04T12:50:29;2.40;;;0.80;;
37483;SDS011;23337;52.212;9.926;2024-02-04T12:53:28;2.73;;;1.10;;
37483;SDS011;23337;52.212;9.926;2024-02-04T12:55:47;3.13;;;0.80;;
37483;SDS011;23337;52.212;9.926;2024-02-04T12:58:13;1.97;;;0.80;;
37483;SDS011;23337;52.212;9.926;2024-02-04T13:00:42;1.97;;;0.70;;
37483;SDS011;23337;52.212;9.926;2024-02-04T13:03:08;2.20;;;0.60;;
37483;SDS011;23337;52.212;9.926;2024-02-04T13:05:35;2.23;;;1.33;;
37483;SDS011;23337;52.212;9.926;2024-02-04T13:08:01;3.30;;;1.10;;
37483;SDS011;23337;52.212;9.926;2024-02-04T13:10:34;4.43;;;1.13;;
37483;SDS011;23337;52.212;9.926;2024-02-04T13:13:01;3.80;;;0.83;;
37483;SDS011;23337;52.212;9.926;2024-02-04T13:15:28;2.60;;;0.70;;
37483;SDS011;23337;52.212;9.926;2024-02-04T13:17:54;1.17;;;0.60;;
37483;SDS011;23337;52.212;9.926;2024-02-04T13:20:21;1.43;;;0.87;;
37483;SDS011;23337;52.212;9.926;2024-02-04T13:22:47;5.67;;;0.90;;
37483;SDS011;23337;52.212;9.926;2024-02-04T13:25:13;2.30;;;0.70;;
37483;SDS011;23337;52.212;9.926;2024-02-04T13:27:40;2.70;;;0.93;;
37483;SDS011;23337;52.212;9.926;2024-02-04T13:30:06;4.33;;;2.27;;
37483;SDS011;23337;52.212;9.926;2024-02-04T13:32:37;5.13;;;2.93;;
37483;SDS011;23337;52.212;9.926;2024-02-04T13:35:02;4.77;;;2.37;;
37483;SDS011;23337;52.212;9.926;2024-02-04T13:37:28;5.07;;;1.30;;
37483;SDS011;23337;52.212;9.926;2024-02-04T13:39:54;3.20;;;1.33;;
37483;SDS011;23337;52.212;9.926;2024-02-04T13:42:20;3.33;;;1.13;;
37483;SDS011;23337;52.212;9.926;2024-02-04T13:44:46;3.47;;;1.20;;
37483;SDS011;23337;52.212;9.926;2024-02-04T13:47:12;3.60;;;1.73;;
37483;SDS011;23337;52.212;9.926;2024-02-04T13:49:38;2.93;;;1.47;;
37483;SDS011;23337;52.212;9.926;2024-02-04T13:52:04;1.40;;;1.17;;
37483;SDS011;23337;52.212;9.926;2024-02-04T13:54:30;5.13;;;1.87;;
37483;SDS011;23337;52.212;9.926;2024-02-04T13:56:56;2.80;;;1.60;;
37483;SDS011;23337;52.212;9.926;2024-02-04T13:59:22;3.50;;;1.87;;
37483;SDS011;23337;52.212;9.926;2024-02-04T14:01:48;5.20;;;2.00;;
37483;SDS011;23337;52.212;9.926;2024-02-04T14:04:15;3.53;;;1.60;;
37483;SDS011;23337;52.212;9.926;2024-02-04T14:06:41;2.80;;;0.97;;
37483;SDS011;23337;52.212;9.926;2024-02-04T14:09:07;3.43;;;1.73;;
37483;SDS011;23337;52.212;9.926;2024-02-04T14:11:33;3.50;;;1.10;;
37483;SDS011;23337;52.212;9.926;2024-02-04T14:13:59;2.77;;;1.63;;
37483;SDS011;23337;52.212;9.926;2024-02-04T14:16:26;3.43;;;1.80;;
37483;SDS011;23337;52.212;9.926;2024-02-04T14:18:52;2.30;;;1.50;;
37483;SDS011;23337;52.212;9.926;2024-02-04T14:21:18;5.43;;;1.77;;
37483;SDS011;23337;52.212;9.926;2024-02-04T14:23:44;1.67;;;1.27;;
37483;SDS011;23337;52.212;9.926;2024-02-04T14:26:20;3.33;;;1.70;;
37483;SDS011;23337;52.212;9.926;2024-02-04T14:28:46;2.70;;;1.57;;
37483;SDS011;23337;52.212;9.926;2024-02-04T14:31:12;4.03;;;2.10;;
37483;SDS011;23337;52.212;9.926;2024-02-04T14:33:38;2.60;;;1.90;;
37483;SDS011;23337;52.212;9.926;2024-02-04T14:36:05;3.77;;;2.43;;
37483;SDS011;23337;52.212;9.926;2024-02-04T14:38:31;3.03;;;2.13;;
37483;SDS011;23337;52.212;9.926;2024-02-04T14:40:57;2.57;;;1.93;;
37483;SDS011;23337;52.212;9.926;2024-02-04T14:43:24;3.03;;;1.80;;
37483;SDS011;23337;52.212;9.926;2024-02-04T14:45:50;3.23;;;2.10;;
37483;SDS011;23337;52.212;9.926;2024-02-04T14:48:16;2.70;;;1.70;;
37483;SDS011;23337;52.212;9.926;2024-02-04T14:50:42;4.33;;;2.10;;
37483;SDS011;23337;52.212;9.926;2024-02-04T14:53:08;5.60;;;3.77;;